KFFA

First Flight Airport

Kill Devil Hills, North Carolina, USA
METAR KFFA 222040Z AUTO 00000KT 10SM CLR 15/06 A3025 RMK AO2 T01480061
Observed Flight Rules
Oct-22 @ 20:40 UTC (16 minutes ago) Visual Flight Rules
Visibility Clouds
10 miles
  • Clear skies
Temperatures Readings
Current 15°C / 59°F
Dewpoint 6°C / 43°F
Humidity 55%
Altimeter 30.25" Hg
Pressure 1024 hPa
Elevation 4
METAR KFFA 222040Z AUTO 00000KT 10SM CLR 15/06 A3025 RMK AO2 T01480061
Observed Flight Rules
Oct-22 @ 20:40 UTC
(16 minutes ago)
VFR
Clouds
  • Clear skies
Temperature Dewpoint
15°C / 59°F 6°C / 43°F
Humidity Altimeter Pressure
55% 30.25" Hg 1024 hPa